Stephen L. — WDE7070 — position and weather

sailwx.info

Track history (hours):
 
Tides and Currents Weather Stations Pressure Air Temp Water Temp Dewpoint Dewpoint Depression Visibility Wind Speed Wind Dir Waves Ship Positions

Stephen L.

Owner: TRIPLE S MARINE, LLC, MORGAN CITY, LA. More information available from US FCC via Universal Licensing System and Coast Guard Vessel Documentation Center.

Last reported at 2015-May-29 14:11 UTC. Time now 2015-May-30 22:39 UTC.
Position N 29°31' W 094°32'.

Length 20 m.

Type: Ship. MMSI: 367388580.

Date/timePositionNaut miles runAvg speedWind from/ knotsBaromVisibWave heightAir tempDewpointWater temp
2015-May-29 14:11N 29°31' W 094°32'16 1.2
2015-May-29 00:09N 29°23' W 094°49'4 6.1
2015-May-28 23:33N 29°27' W 094°50'6 5.7
2015-May-28 22:33N 29°32' W 094°54'6 5.6
2015-May-28 21:33N 29°36' W 094°57'5 5.3
2015-May-28 20:33N 29°41' W 094°59'5 4.6
2015-May-28 19:33N 29°44' W 095°03'3 3.0
2015-May-28 18:33N 29°47' W 095°05'1 0.9
2015-May-28 17:33N 29°46' W 095°05'4 4.0
2015-May-28 16:34N 29°44' W 095°09'5 4.8
2015-May-28 15:33N 29°43' W 095°14'3 2.7
2015-May-28 14:34N 29°45' W 095°17'0 0.0
2015-May-28 13:34N 29°45' W 095°17'0 0.1
2015-May-28 12:33N 29°45' W 095°17'0 0.0
2015-May-28 11:33N 29°45' W 095°17'0 0.0
2015-May-28 10:33N 29°45' W 095°17'0 0.0
2015-May-28 09:33N 29°45' W 095°17'0 0.0
2015-May-28 08:33N 29°45' W 095°17'0 0.0
2015-May-28 07:33N 29°45' W 095°17'0 0.0
2015-May-28 06:33N 29°45' W 095°17'0 0.0
2015-May-28 05:33N 29°45' W 095°17'0 0.0
2015-May-28 04:23N 29°45' W 095°17'0 0.0
2015-May-28 03:30N 29°45' W 095°17'0 0.0
2015-May-28 02:33N 29°45' W 095°17'0 0.0
2015-May-28 01:30N 29°45' W 095°17'0 0.0
2015-May-28 00:34N 29°45' W 095°17'0 0.0
2015-May-27 23:33N 29°44' W 095°17'0 0.0
2015-May-27 22:33N 29°45' W 095°17'0 0.0
2015-May-27 21:34N 29°45' W 095°17'0 0.0
2015-May-27 20:34N 29°45' W 095°17'0 0.0
2015-May-27 19:33N 29°45' W 095°17'0 0.0
2015-May-27 18:34N 29°45' W 095°17'0 0.0
2015-May-27 17:33N 29°45' W 095°17'0 0.0
2015-May-27 16:34N 29°45' W 095°17'0 0.0
2015-May-27 15:28N 29°45' W 095°17'0 0.0
2015-May-27 14:25N 29°45' W 095°17'0 0.0
2015-May-27 13:33N 29°45' W 095°17'0 0.0
2015-May-27 12:33N 29°45' W 095°17'0 0.0
2015-May-27 11:33N 29°45' W 095°17'0 0.0
2015-May-27 10:33N 29°45' W 095°17'0 0.0
2015-May-27 09:25N 29°45' W 095°17'0 0.0
2015-May-27 08:33N 29°45' W 095°17'0 0.0
2015-May-27 07:27N 29°45' W 095°17'0 0.0
2015-May-27 06:31N 29°45' W 095°17'0 0.0
2015-May-27 05:31N 29°45' W 095°17'0 0.0
2015-May-27 04:32N 29°45' W 095°17'0 0.0
2015-May-27 03:31N 29°45' W 095°17'0 0.0
2015-May-27 02:33N 29°45' W 095°17'0 0.0
2015-May-27 01:33N 29°45' W 095°17'0 0.0
2015-May-27 00:33N 29°45' W 095°17'0 0.0
2015-May-26 23:33N 29°45' W 095°17'0 0.0
2015-May-26 22:33N 29°45' W 095°17'0 0.0
2015-May-26 21:32N 29°45' W 095°17'0 0.0
2015-May-26 20:33N 29°45' W 095°17'0 0.0
2015-May-26 19:33N 29°45' W 095°17'0 0.0
2015-May-26 18:33N 29°45' W 095°17'0 0.0
2015-May-26 17:33N 29°45' W 095°17'0 0.0
2015-May-26 16:29N 29°45' W 095°17'0 0.0
2015-May-26 15:33N 29°45' W 095°17'0 0.0
2015-May-26 14:33N 29°45' W 095°17'0 0.0
2015-May-26 13:33N 29°45' W 095°17'0 0.0
2015-May-26 12:33N 29°45' W 095°17'0 0.0
2015-May-26 11:33N 29°45' W 095°17'0 0.0
2015-May-26 10:33N 29°45' W 095°17'0 0.0
2015-May-26 09:33N 29°45' W 095°17'0 0.0
2015-May-26 08:32N 29°45' W 095°17'0 0.0
2015-May-26 07:22N 29°45' W 095°17'0 0.0
2015-May-26 06:32N 29°45' W 095°17'0 0.0
2015-May-26 05:33N 29°45' W 095°17'0 0.0
2015-May-26 04:34N 29°45' W 095°17'0 0.0
2015-May-26 03:33N 29°45' W 095°17'0 0.0
2015-May-26 02:32N 29°45' W 095°17'0 0.0
2015-May-26 01:33N 29°45' W 095°17'0 0.0
2015-May-26 00:30N 29°45' W 095°17'0 0.0
2015-May-25 09:12N 29°45' W 095°17'0 0.0
2015-May-23 22:33N 29°44' W 095°17'6 5.5
2015-May-23 21:32N 29°45' W 095°10'10 0.5
2015-May-23 00:28N 29°41' W 094°59'8 7.3
2015-May-22 23:25N 29°34' W 094°56'  
2015-May-19 16:03N 29°34' W 090°56'4 7.6
2015-May-19 15:30N 29°32' W 090°52'6 6.7
2015-May-19 14:34N 29°34' W 090°45'  
Track history (hours):
 
Tides and Currents Weather Stations Pressure Air Temp Water Temp Dewpoint Dewpoint Depression Visibility Wind Speed Wind Dir Waves Ship Positions

Stephen L.

Owner: TRIPLE S MARINE, LLC, MORGAN CITY, LA. More information available from US FCC via Universal Licensing System and Coast Guard Vessel Documentation Center.

Last reported at 2015-May-29 14:11 UTC. Time now 2015-May-30 22:39 UTC.
Position N 29°31' W 094°32'.

Length 20 m.

Type: Ship. MMSI: 367388580.

Date/timePositionNaut miles runAvg speedWind from/ knotsBaromVisibWave heightAir tempDewpointWater temp
2015-May-29 14:11N 29°31' W 094°32'16 1.2
2015-May-29 00:09N 29°23' W 094°49'4 6.1
2015-May-28 23:33N 29°27' W 094°50'6 5.7
2015-May-28 22:33N 29°32' W 094°54'6 5.6
2015-May-28 21:33N 29°36' W 094°57'5 5.3
2015-May-28 20:33N 29°41' W 094°59'5 4.6
2015-May-28 19:33N 29°44' W 095°03'3 3.0
2015-May-28 18:33N 29°47' W 095°05'1 0.9
2015-May-28 17:33N 29°46' W 095°05'4 4.0
2015-May-28 16:34N 29°44' W 095°09'5 4.8
2015-May-28 15:33N 29°43' W 095°14'3 2.7
2015-May-28 14:34N 29°45' W 095°17'0 0.0
2015-May-28 13:34N 29°45' W 095°17'0 0.1
2015-May-28 12:33N 29°45' W 095°17'0 0.0
2015-May-28 11:33N 29°45' W 095°17'0 0.0
2015-May-28 10:33N 29°45' W 095°17'0 0.0
2015-May-28 09:33N 29°45' W 095°17'0 0.0
2015-May-28 08:33N 29°45' W 095°17'0 0.0
2015-May-28 07:33N 29°45' W 095°17'0 0.0
2015-May-28 06:33N 29°45' W 095°17'0 0.0
2015-May-28 05:33N 29°45' W 095°17'0 0.0
2015-May-28 04:23N 29°45' W 095°17'0 0.0
2015-May-28 03:30N 29°45' W 095°17'0 0.0
2015-May-28 02:33N 29°45' W 095°17'0 0.0
2015-May-28 01:30N 29°45' W 095°17'0 0.0
2015-May-28 00:34N 29°45' W 095°17'0 0.0
2015-May-27 23:33N 29°44' W 095°17'0 0.0
2015-May-27 22:33N 29°45' W 095°17'0 0.0
2015-May-27 21:34N 29°45' W 095°17'0 0.0
2015-May-27 20:34N 29°45' W 095°17'0 0.0
2015-May-27 19:33N 29°45' W 095°17'0 0.0
2015-May-27 18:34N 29°45' W 095°17'0 0.0
2015-May-27 17:33N 29°45' W 095°17'0 0.0
2015-May-27 16:34N 29°45' W 095°17'0 0.0
2015-May-27 15:28N 29°45' W 095°17'0 0.0
2015-May-27 14:25N 29°45' W 095°17'0 0.0
2015-May-27 13:33N 29°45' W 095°17'0 0.0
2015-May-27 12:33N 29°45' W 095°17'0 0.0
2015-May-27 11:33N 29°45' W 095°17'0 0.0
2015-May-27 10:33N 29°45' W 095°17'0 0.0
2015-May-27 09:25N 29°45' W 095°17'0 0.0
2015-May-27 08:33N 29°45' W 095°17'0 0.0
2015-May-27 07:27N 29°45' W 095°17'0 0.0
2015-May-27 06:31N 29°45' W 095°17'0 0.0
2015-May-27 05:31N 29°45' W 095°17'0 0.0
2015-May-27 04:32N 29°45' W 095°17'0 0.0
2015-May-27 03:31N 29°45' W 095°17'0 0.0
2015-May-27 02:33N 29°45' W 095°17'0 0.0
2015-May-27 01:33N 29°45' W 095°17'0 0.0
2015-May-27 00:33N 29°45' W 095°17'0 0.0
2015-May-26 23:33N 29°45' W 095°17'0 0.0
2015-May-26 22:33N 29°45' W 095°17'0 0.0
2015-May-26 21:32N 29°45' W 095°17'0 0.0
2015-May-26 20:33N 29°45' W 095°17'0 0.0
2015-May-26 19:33N 29°45' W 095°17'0 0.0
2015-May-26 18:33N 29°45' W 095°17'0 0.0
2015-May-26 17:33N 29°45' W 095°17'0 0.0
2015-May-26 16:29N 29°45' W 095°17'0 0.0
2015-May-26 15:33N 29°45' W 095°17'0 0.0
2015-May-26 14:33N 29°45' W 095°17'0 0.0
2015-May-26 13:33N 29°45' W 095°17'0 0.0
2015-May-26 12:33N 29°45' W 095°17'0 0.0
2015-May-26 11:33N 29°45' W 095°17'0 0.0
2015-May-26 10:33N 29°45' W 095°17'0 0.0
2015-May-26 09:33N 29°45' W 095°17'0 0.0
2015-May-26 08:32N 29°45' W 095°17'0 0.0
2015-May-26 07:22N 29°45' W 095°17'0 0.0
2015-May-26 06:32N 29°45' W 095°17'0 0.0
2015-May-26 05:33N 29°45' W 095°17'0 0.0
2015-May-26 04:34N 29°45' W 095°17'0 0.0
2015-May-26 03:33N 29°45' W 095°17'0 0.0
2015-May-26 02:32N 29°45' W 095°17'0 0.0
2015-May-26 01:33N 29°45' W 095°17'0 0.0
2015-May-26 00:30N 29°45' W 095°17'0 0.0
2015-May-25 09:12N 29°45' W 095°17'0 0.0
2015-May-23 22:33N 29°44' W 095°17'6 5.5
2015-May-23 21:32N 29°45' W 095°10'10 0.5
2015-May-23 00:28N 29°41' W 094°59'8 7.3
2015-May-22 23:25N 29°34' W 094°56'  
2015-May-19 16:03N 29°34' W 090°56'4 7.6
2015-May-19 15:30N 29°32' W 090°52'6 6.7
2015-May-19 14:34N 29°34' W 090°45'  

Dump ship's entire track history